Time;durP1;ratioP1;P1;durP2;ratioP2;P2;SDS_P1;SDS_P2;PMS_P1;PMS_P2;Temp;Humidity;BMP_temperature;BMP_pressure;BME280_temperature;BME280_humidity;BME280_pressure;Samples;Min_cycle;Max_cycle;Signal;HPM_P1;HPM_P2
2023/03/17 00:04:31;;;;;;;;;;;18.30;45.30;;;;;;10410735;28;840;-88
2023/03/17 00:09:27;;;;;;;;;;;18.30;45.20;;;;;;10410304;28;885;-89
2023/03/17 00:14:22;;;;;;;;;;;18.30;45.30;;;;;;10410041;28;1906;-89
2023/03/17 00:19:18;;;;;;;;;;;18.30;45.40;;;;;;10409931;28;860;-89
2023/03/17 00:24:13;;;;;;;;;;;18.30;45.30;;;;;;10409239;28;776;-89
2023/03/17 00:29:08;;;;;;;;;;;18.30;45.30;;;;;;10409604;28;870;-89
2023/03/17 00:34:04;;;;;;;;;;;18.30;45.20;;;;;;10409876;28;1897;-89
2023/03/17 00:39:00;;;;;;;;;;;18.30;45.20;;;;;;10408436;28;1104;-89
2023/03/17 00:43:56;;;;;;;;;;;18.30;45.30;;;;;;10409621;28;767;-89
2023/03/17 00:48:51;;;;;;;;;;;18.30;45.30;;;;;;10408803;28;988;-89
2023/03/17 00:53:47;;;;;;;;;;;18.20;45.30;;;;;;10409295;28;1914;-89
2023/03/17 00:58:42;;;;;;;;;;;18.30;45.40;;;;;;10408533;28;987;-88
2023/03/17 01:03:37;;;;;;;;;;;18.30;45.40;;;;;;10408392;28;949;-88
2023/03/17 01:08:33;;;;;;;;;;;18.20;45.30;;;;;;10407678;28;838;-88
2023/03/17 01:13:28;;;;;;;;;;;18.20;45.30;;;;;;10407378;28;1897;-88
2023/03/17 01:18:23;;;;;;;;;;;18.20;45.40;;;;;;10408128;28;946;-89
2023/03/17 01:23:19;;;;;;;;;;;18.20;45.30;;;;;;10408459;28;842;-89
2023/03/17 01:28:14;;;;;;;;;;;18.20;45.40;;;;;;10407774;28;793;-89
2023/03/17 01:33:10;;;;;;;;;;;18.20;45.40;;;;;;10408249;28;1913;-90
2023/03/17 01:38:05;;;;;;;;;;;18.20;45.40;;;;;;10413349;28;881;-89
2023/03/17 01:43:00;;;;;;;;;;;18.30;45.40;;;;;;10417197;28;1143;-89
2023/03/17 01:47:56;;;;;;;;;;;18.20;45.30;;;;;;10415977;28;910;-89
2023/03/17 01:52:52;;;;;;;;;;;18.20;45.30;;;;;;10416303;28;1909;-89
2023/03/17 01:57:50;;;;;;;;;;;18.20;45.30;;;;;;10415594;28;822;-89
2023/03/17 02:02:45;;;;;;;;;;;18.20;45.30;;;;;;10415309;28;982;-89
2023/03/17 02:07:40;;;;;;;;;;;18.20;45.30;;;;;;10415148;28;795;-89
2023/03/17 02:12:36;;;;;;;;;;;18.20;45.30;;;;;;10414203;28;1965;-90
2023/03/17 02:17:31;;;;;;;;;;;18.20;45.30;;;;;;10414795;28;751;-90
2023/03/17 02:22:26;;;;;;;;;;;18.20;45.30;;;;;;10415206;28;847;-89
2023/03/17 02:27:22;;;;;;;;;;;18.20;45.30;;;;;;10414672;28;882;-89
2023/03/17 02:32:18;;;;;;;;;;;18.20;45.30;;;;;;10415360;28;1902;-89
2023/03/17 02:37:13;;;;;;;;;;;18.20;45.90;;;;;;10414248;28;814;-89
2023/03/17 02:42:08;;;;;;;;;;;18.20;45.40;;;;;;10413847;28;1320;-89
2023/03/17 02:47:04;;;;;;;;;;;18.20;45.30;;;;;;10413891;28;950;-90
2023/03/17 02:52:00;;;;;;;;;;;18.20;45.40;;;;;;10412855;28;1913;-90
2023/03/17 02:56:55;;;;;;;;;;;18.20;45.30;;;;;;10412687;28;1233;-89
2023/03/17 03:01:51;;;;;;;;;;;18.20;45.40;;;;;;10413100;28;823;-90
2023/03/17 03:06:46;;;;;;;;;;;18.20;45.40;;;;;;10412957;28;869;-90
2023/03/17 03:11:42;;;;;;;;;;;18.20;45.40;;;;;;10412015;28;2007;-90
2023/03/17 03:16:37;;;;;;;;;;;18.20;45.40;;;;;;10413068;28;886;-89
2023/03/17 03:21:32;;;;;;;;;;;18.20;45.50;;;;;;10412886;28;857;-89
2023/03/17 03:26:28;;;;;;;;;;;18.20;45.40;;;;;;10412714;28;912;-89
2023/03/17 03:31:23;;;;;;;;;;;18.20;45.40;;;;;;10412445;28;1966;-90
2023/03/17 03:36:19;;;;;;;;;;;18.20;45.40;;;;;;10411106;28;860;-90
2023/03/17 03:41:14;;;;;;;;;;;18.10;45.30;;;;;;10411257;28;1230;-89
2023/03/17 03:46:09;;;;;;;;;;;18.10;45.40;;;;;;10410709;28;1101;-89
2023/03/17 03:51:05;;;;;;;;;;;18.20;45.40;;;;;;10411061;28;1906;-90
2023/03/17 03:56:01;;;;;;;;;;;18.20;45.40;;;;;;10411745;28;781;-89
2023/03/17 04:00:57;;;;;;;;;;;18.20;45.40;;;;;;10410698;28;869;-90
2023/03/17 04:05:52;;;;;;;;;;;18.10;45.30;;;;;;10411144;28;877;-90
2023/03/17 04:10:47;;;;;;;;;;;18.10;45.30;;;;;;10410249;28;1964;-89
2023/03/17 04:15:43;;;;;;;;;;;18.10;45.30;;;;;;10411640;28;886;-88
2023/03/17 04:20:38;;;;;;;;;;;18.20;45.40;;;;;;10409952;28;771;-90
2023/03/17 04:25:34;;;;;;;;;;;18.10;45.30;;;;;;10409736;28;769;-90
2023/03/17 04:30:29;;;;;;;;;;;18.10;45.30;;;;;;10409838;28;845;-89
2023/03/17 04:35:25;;;;;;;;;;;18.10;45.30;;;;;;10409958;28;1894;-89
2023/03/17 04:40:21;;;;;;;;;;;18.10;45.20;;;;;;10409552;28;1318;-90
2023/03/17 04:45:16;;;;;;;;;;;18.10;45.90;;;;;;10409257;28;908;-90
2023/03/17 04:50:11;;;;;;;;;;;18.10;45.30;;;;;;10408805;28;926;-90
2023/03/17 04:55:10;;;;;;;;;;;18.10;45.30;;;;;;10408639;28;1980;-90
2023/03/17 05:00:06;;;;;;;;;;;18.10;45.30;;;;;;10408082;28;884;-87
2023/03/17 05:05:01;;;;;;;;;;;18.10;45.30;;;;;;10407784;28;902;-87
2023/03/17 05:09:57;;;;;;;;;;;18.10;45.30;;;;;;10407698;28;1034;-89
2023/03/17 05:14:52;;;;;;;;;;;18.10;45.30;;;;;;10408023;28;1963;-89
2023/03/17 05:19:47;;;;;;;;;;;18.10;45.30;;;;;;10408540;28;937;-89
2023/03/17 05:24:43;;;;;;;;;;;18.10;45.20;;;;;;10407862;28;830;-89
2023/03/17 05:29:38;;;;;;;;;;;18.10;45.10;;;;;;10408091;28;875;-89
2023/03/17 05:34:33;;;;;;;;;;;18.20;45.20;;;;;;10407584;28;1973;-89
2023/03/17 05:39:29;;;;;;;;;;;18.20;45.20;;;;;;10408494;28;1147;-89
2023/03/17 05:44:24;;;;;;;;;;;18.20;45.20;;;;;;10407880;28;889;-89
2023/03/17 05:49:20;;;;;;;;;;;18.20;45.20;;;;;;10407984;28;854;-89
2023/03/17 05:54:15;;;;;;;;;;;18.30;45.10;;;;;;10406633;28;1976;-89
2023/03/17 05:59:13;;;;;;;;;;;18.20;45.10;;;;;;10407787;28;901;-89
2023/03/17 06:04:09;;;;;;;;;;;18.20;45.00;;;;;;10407261;28;877;-81
2023/03/17 06:09:04;;;;;;;;;;;18.20;45.00;;;;;;10407639;28;964;-87
2023/03/17 06:14:00;;;;;;;;;;;18.20;45.00;;;;;;10378386;28;1951;-85
2023/03/17 06:18:56;;;;;;;;;;;18.20;45.00;;;;;;10365429;28;815;-84
2023/03/17 06:23:51;;;;;;;;;;;18.20;45.00;;;;;;10369687;28;957;-88
2023/03/17 06:28:46;;;;;;;;;;;18.30;44.90;;;;;;10373115;28;889;-86
2023/03/17 06:33:42;;;;;;;;;;;18.30;45.50;;;;;;10372752;28;1901;-79
2023/03/17 06:38:38;;;;;;;;;;;18.20;45.00;;;;;;10372577;28;1039;-82
2023/03/17 06:43:34;;;;;;;;;;;18.30;45.00;;;;;;10372354;28;996;-81
2023/03/17 06:48:29;;;;;;;;;;;18.30;44.90;;;;;;10372119;28;988;-82
2023/03/17 06:53:25;;;;;;;;;;;18.20;45.40;;;;;;10371395;28;1914;-82
2023/03/17 06:58:20;;;;;;;;;;;18.20;44.80;;;;;;10372237;28;876;-79
2023/03/17 07:03:15;;;;;;;;;;;18.20;44.70;;;;;;10369703;28;940;-80
2023/03/17 07:08:11;;;;;;;;;;;18.20;44.70;;;;;;10371396;28;897;-79
2023/03/17 07:13:07;;;;;;;;;;;18.20;44.60;;;;;;10371373;28;1902;-79
2023/03/17 07:18:02;;;;;;;;;;;18.20;44.90;;;;;;10371596;28;893;-79
2023/03/17 07:22:58;;;;;;;;;;;18.10;44.60;;;;;;10371075;28;912;-79
2023/03/17 07:27:53;;;;;;;;;;;18.10;44.90;;;;;;10370536;28;743;-79
2023/03/17 07:32:49;;;;;;;;;;;18.10;44.90;;;;;;10370142;28;1902;-79
2023/03/17 07:37:44;;;;;;;;;;;18.10;44.90;;;;;;10370136;28;954;-80
2023/03/17 07:42:40;;;;;;;;;;;18.10;44.90;;;;;;10371053;28;1294;-86
2023/03/17 07:47:36;;;;;;;;;;;18.20;44.80;;;;;;10370202;28;795;-86
2023/03/17 07:52:31;;;;;;;;;;;18.20;44.70;;;;;;10369531;28;1913;-82
2023/03/17 07:57:27;;;;;;;;;;;18.20;44.80;;;;;;10369426;28;831;-84
2023/03/17 08:02:23;;;;;;;;;;;18.10;44.80;;;;;;10369741;28;787;-81
2023/03/17 08:07:18;;;;;;;;;;;18.20;44.80;;;;;;10369049;28;787;-83
2023/03/17 08:12:13;;;;;;;;;;;18.20;44.80;;;;;;10368570;28;1906;-86
2023/03/17 08:17:09;;;;;;;;;;;18.20;44.80;;;;;;10368740;28;894;-85
2023/03/17 08:22:04;;;;;;;;;;;18.20;44.80;;;;;;10368492;28;880;-87
2023/03/17 08:27:00;;;;;;;;;;;18.20;44.70;;;;;;10368416;28;792;-87
2023/03/17 08:31:56;;;;;;;;;;;18.10;44.80;;;;;;10367985;28;1906;-91
2023/03/17 08:36:51;;;;;;;;;;;18.10;44.90;;;;;;10367379;28;949;-83
2023/03/17 08:41:46;;;;;;;;;;;18.10;44.90;;;;;;10367537;28;1335;-79
2023/03/17 08:46:42;;;;;;;;;;;18.10;45.10;;;;;;10366459;28;1050;-89
2023/03/17 08:51:37;;;;;;;;;;;18.20;45.30;;;;;;10367358;28;1968;-86
2023/03/17 08:56:33;;;;;;;;;;;18.10;45.20;;;;;;10367997;28;777;-79
2023/03/17 09:01:28;;;;;;;;;;;18.10;45.20;;;;;;10367084;28;980;-85
2023/03/17 09:06:24;;;;;;;;;;;18.20;45.30;;;;;;10367757;28;846;-81
2023/03/17 09:11:19;;;;;;;;;;;18.20;45.20;;;;;;10366678;28;1898;-81
2023/03/17 09:16:16;;;;;;;;;;;18.20;45.10;;;;;;10366650;28;1025;-81
2023/03/17 09:21:11;;;;;;;;;;;18.20;45.20;;;;;;10367087;28;978;-81
2023/03/17 09:26:06;;;;;;;;;;;18.20;45.00;;;;;;10367180;28;873;-80
2023/03/17 09:31:02;;;;;;;;;;;18.20;45.10;;;;;;10366149;28;1901;-81
2023/03/17 09:35:57;;;;;;;;;;;18.20;45.10;;;;;;10365941;28;988;-82
2023/03/17 09:40:53;;;;;;;;;;;18.20;45.10;;;;;;10366182;28;1349;-82
2023/03/17 09:45:48;;;;;;;;;;;18.20;45.10;;;;;;10365968;28;973;-82
2023/03/17 09:50:44;;;;;;;;;;;18.20;45.10;;;;;;10365975;28;965;-83
2023/03/17 09:55:40;;;;;;;;;;;18.20;45.00;;;;;;10365792;28;1918;-83
2023/03/17 10:00:35;;;;;;;;;;;18.20;45.10;;;;;;10373285;28;799;-75
2023/03/17 10:05:31;;;;;;;;;;;18.30;45.40;;;;;;10373875;28;915;-75
2023/03/17 10:10:26;;;;;;;;;;;18.40;45.70;;;;;;10373711;28;960;-76
2023/03/17 10:15:21;;;;;;;;;;;18.40;45.90;;;;;;10373891;28;1901;-75
2023/03/17 10:20:17;;;;;;;;;;;18.50;46.70;;;;;;10374000;28;854;-76
2023/03/17 10:25:13;;;;;;;;;;;18.50;46.80;;;;;;10373172;28;868;-75
2023/03/17 10:30:09;;;;;;;;;;;18.50;47.30;;;;;;10373657;28;850;-75
2023/03/17 10:35:05;;;;;;;;;;;18.50;46.70;;;;;;10372720;28;1976;-75
2023/03/17 10:40:02;;;;;;;;;;;18.50;46.90;;;;;;10373007;28;1484;-75
2023/03/17 10:44:58;;;;;;;;;;;18.50;47.00;;;;;;10372993;28;849;-75
2023/03/17 10:49:53;;;;;;;;;;;18.40;46.90;;;;;;10372819;28;918;-75
2023/03/17 10:54:51;;;;;;;;;;;18.50;46.90;;;;;;10372519;28;1979;-81
2023/03/17 10:59:47;;;;;;;;;;;18.50;46.80;;;;;;10371805;28;861;-78
2023/03/17 11:04:42;;;;;;;;;;;18.50;46.60;;;;;;10371527;28;834;-72
2023/03/17 11:09:38;;;;;;;;;;;18.50;46.60;;;;;;10371570;28;882;-74
2023/03/17 11:14:34;;;;;;;;;;;18.50;46.40;;;;;;10370959;28;1909;-80
2023/03/17 11:19:29;;;;;;;;;;;18.40;46.40;;;;;;10371007;28;976;-76
2023/03/17 11:24:25;;;;;;;;;;;18.30;46.40;;;;;;10370868;28;877;-77
2023/03/17 11:29:21;;;;;;;;;;;18.30;46.30;;;;;;10371192;28;917;-77
2023/03/17 11:34:18;;;;;;;;;;;18.40;46.20;;;;;;10371002;28;1903;-76
2023/03/17 11:39:14;;;;;;;;;;;18.40;46.10;;;;;;10370123;28;1119;-76
2023/03/17 11:44:10;;;;;;;;;;;18.40;46.00;;;;;;10370759;28;1097;-77
2023/03/17 11:49:05;;;;;;;;;;;18.40;45.90;;;;;;10369842;28;898;-76
2023/03/17 11:54:00;;;;;;;;;;;18.40;45.80;;;;;;10370664;28;1961;-76
2023/03/17 11:58:56;;;;;;;;;;;18.40;45.70;;;;;;10369458;28;874;-80
2023/03/17 12:03:51;;;;;;;;;;;18.40;45.70;;;;;;10368714;28;840;-79
2023/03/17 12:08:47;;;;;;;;;;;18.40;46.20;;;;;;10369802;28;959;-78
2023/03/17 12:13:44;;;;;;;;;;;18.40;45.70;;;;;;10368804;28;1901;-79
2023/03/17 12:18:41;;;;;;;;;;;18.40;45.60;;;;;;10368463;28;841;-76
2023/03/17 12:23:36;;;;;;;;;;;18.40;45.60;;;;;;10369231;28;909;-75
2023/03/17 12:28:32;;;;;;;;;;;18.50;45.70;;;;;;10368271;28;976;-76
2023/03/17 12:33:27;;;;;;;;;;;18.50;45.70;;;;;;10367512;28;1961;-75
2023/03/17 12:38:23;;;;;;;;;;;18.50;45.70;;;;;;10367905;28;803;-74
2023/03/17 12:43:18;;;;;;;;;;;18.50;45.60;;;;;;10367683;28;1284;-80
2023/03/17 12:48:13;;;;;;;;;;;18.60;45.90;;;;;;10367432;28;819;-74
2023/03/17 12:53:09;;;;;;;;;;;18.70;46.40;;;;;;10367410;28;1914;-81
2023/03/17 12:58:04;;;;;;;;;;;18.70;46.50;;;;;;10367259;28;817;-81
2023/03/17 13:02:59;;;;;;;;;;;18.60;46.30;;;;;;10367180;28;973;-78
2023/03/17 13:07:55;;;;;;;;;;;18.60;46.20;;;;;;10367056;28;867;-80
2023/03/17 13:12:51;;;;;;;;;;;18.70;46.40;;;;;;10363274;28;1901;-78
2023/03/17 13:17:46;;;;;;;;;;;18.70;46.70;;;;;;10366516;28;885;-73
2023/03/17 13:22:43;;;;;;;;;;;18.70;46.70;;;;;;10367166;28;854;-72
2023/03/17 13:27:38;;;;;;;;;;;18.70;46.70;;;;;;10366353;28;869;-81
2023/03/17 13:32:34;;;;;;;;;;;18.70;46.70;;;;;;10365942;28;1910;-80
2023/03/17 13:37:29;;;;;;;;;;;18.80;46.70;;;;;;10366331;28;830;-80
2023/03/17 13:42:25;;;;;;;;;;;18.80;47.30;;;;;;10365538;28;1300;-80
2023/03/17 13:47:20;;;;;;;;;;;18.70;46.60;;;;;;10366085;28;954;-80
2023/03/17 13:52:16;;;;;;;;;;;18.80;46.60;;;;;;10366527;28;1981;-80
2023/03/17 13:57:11;;;;;;;;;;;18.70;46.40;;;;;;10366306;28;861;-80
2023/03/17 14:02:07;;;;;;;;;;;18.80;46.40;;;;;;10364726;28;894;-81
2023/03/17 14:07:02;;;;;;;;;;;18.80;46.00;;;;;;10365800;28;862;-78
2023/03/17 14:11:58;;;;;;;;;;;18.80;46.00;;;;;;10365700;28;1965;-76
2023/03/17 14:16:54;;;;;;;;;;;18.90;46.00;;;;;;10364404;28;1340;-79
2023/03/17 14:21:49;;;;;;;;;;;18.80;46.10;;;;;;10364963;28;943;-79
2023/03/17 14:26:46;;;;;;;;;;;18.80;46.10;;;;;;10365732;28;985;-80
2023/03/17 14:31:42;;;;;;;;;;;18.80;46.10;;;;;;10365023;28;1972;-78
2023/03/17 14:36:37;;;;;;;;;;;18.80;46.00;;;;;;10364909;28;994;-78
2023/03/17 14:41:35;;;;;;;;;;;18.80;46.10;;;;;;10364173;28;1262;-79
2023/03/17 14:46:30;;;;;;;;;;;18.80;46.00;;;;;;10371836;28;1011;-79
2023/03/17 14:51:26;;;;;;;;;;;18.80;46.00;;;;;;10372225;28;1913;-80
2023/03/17 14:56:22;;;;;;;;;;;18.80;46.00;;;;;;10371126;28;803;-79
2023/03/17 15:01:17;;;;;;;;;;;18.70;45.90;;;;;;10372034;28;869;-78
2023/03/17 15:06:12;;;;;;;;;;;18.70;45.90;;;;;;10372494;28;933;-81
2023/03/17 15:11:08;;;;;;;;;;;18.80;46.00;;;;;;10371722;28;922;-80
2023/03/17 15:16:03;;;;;;;;;;;18.80;46.00;;;;;;10371552;28;780;-81
2023/03/17 15:20:59;;;;;;;;;;;18.80;45.90;;;;;;10371214;28;850;-80
2023/03/17 15:25:55;;;;;;;;;;;18.70;45.80;;;;;;10370456;28;835;-79
2023/03/17 15:30:50;;;;;;;;;;;18.80;45.90;;;;;;10386149;28;1208;-79
2023/03/17 15:35:46;;;;;;;;;;;18.80;45.90;;;;;;10411634;28;1902;-87
2023/03/17 15:40:41;;;;;;;;;;;18.80;45.90;;;;;;10411555;28;1167;-79
2023/03/17 15:45:36;;;;;;;;;;;18.80;45.90;;;;;;10411872;28;862;-77
2023/03/17 15:50:32;;;;;;;;;;;18.80;45.90;;;;;;10412321;28;963;-79
2023/03/17 15:55:30;;;;;;;;;;;18.80;45.90;;;;;;10409951;28;1910;-84
2023/03/17 16:00:27;;;;;;;;;;;18.80;45.80;;;;;;10411181;28;897;-83
2023/03/17 16:05:23;;;;;;;;;;;18.80;45.70;;;;;;10411079;28;857;-80
2023/03/17 16:10:18;;;;;;;;;;;18.70;45.60;;;;;;10410378;28;957;-81
2023/03/17 16:15:13;;;;;;;;;;;18.70;45.60;;;;;;10409826;28;1971;-81
2023/03/17 16:20:09;;;;;;;;;;;18.70;45.60;;;;;;10409435;28;775;-82
2023/03/17 16:25:04;;;;;;;;;;;18.80;45.70;;;;;;10409908;28;893;-82
2023/03/17 16:30:00;;;;;;;;;;;18.70;46.10;;;;;;10409749;28;764;-82
2023/03/17 16:34:55;;;;;;;;;;;18.70;45.60;;;;;;10409473;28;1905;-81
2023/03/17 16:39:51;;;;;;;;;;;18.70;46.10;;;;;;10408003;28;1241;-84
2023/03/17 16:44:46;;;;;;;;;;;18.80;45.60;;;;;;10409039;28;907;-79
2023/03/17 16:49:41;;;;;;;;;;;18.90;45.80;;;;;;10409618;28;905;-81
2023/03/17 16:54:37;;;;;;;;;;;18.90;45.90;;;;;;10408815;28;1987;-81
2023/03/17 16:59:32;;;;;;;;;;;18.90;46.00;;;;;;10408699;28;807;-77
2023/03/17 17:04:28;;;;;;;;;;;18.80;45.90;;;;;;10408250;28;872;-76
2023/03/17 17:09:23;;;;;;;;;;;18.80;45.90;;;;;;10407971;28;883;-79
2023/03/17 17:14:18;;;;;;;;;;;18.80;46.00;;;;;;10407855;28;1910;-78
2023/03/17 17:19:14;;;;;;;;;;;18.80;46.10;;;;;;10408111;28;834;-79
2023/03/17 17:24:10;;;;;;;;;;;18.80;46.10;;;;;;10407960;28;839;-79
2023/03/17 17:29:05;;;;;;;;;;;18.80;46.10;;;;;;10407893;28;904;-78
2023/03/17 17:34:00;;;;;;;;;;;18.70;46.00;;;;;;10406797;28;1906;-79
2023/03/17 17:38:56;;;;;;;;;;;18.80;46.10;;;;;;10406930;28;1164;-78
2023/03/17 17:43:52;;;;;;;;;;;18.80;46.10;;;;;;10407759;28;1101;-78
2023/03/17 17:48:48;;;;;;;;;;;18.80;46.20;;;;;;10407552;28;942;-73
2023/03/17 17:53:43;;;;;;;;;;;18.90;46.90;;;;;;10407341;28;1921;-73
2023/03/17 17:58:38;;;;;;;;;;;18.80;47.00;;;;;;10407524;28;942;-73
2023/03/17 18:03:34;;;;;;;;;;;18.80;46.80;;;;;;10407788;28;921;-74
2023/03/17 18:08:29;;;;;;;;;;;18.70;46.70;;;;;;10407122;28;862;-73
2023/03/17 18:13:25;;;;;;;;;;;;;;;;;;10406396;28;1914;-73
2023/03/17 18:18:21;;;;;;;;;;;;;;;;;;10408999;28;841;-74
2023/03/17 18:23:17;;;;;;;;;;;;;;;;;;10415497;28;822;-70
2023/03/17 18:28:13;;;;;;;;;;;;;;;;;;10414687;28;953;-71
2023/03/17 18:33:09;;;;;;;;;;;;;;;;;;10414481;28;1898;-71
2023/03/17 18:38:05;;;;;;;;;;;;;;;;;;10414148;28;757;-70
2023/03/17 18:43:01;;;;;;;;;;;;;;;;;;10394981;28;2012;-71
2023/03/17 18:47:56;;;;;;;;;;;;;;;;;;10413209;28;902;-70
2023/03/17 18:52:54;;;;;;;;;;;;;;;;;;10413066;28;1974;-71
2023/03/17 18:57:50;;;;;;;;;;;;;;;;;;10413476;28;894;-70
2023/03/17 19:02:47;;;;;;;;;;;;;;;;;;10412603;28;1099;-71
2023/03/17 19:07:43;;;;;;;;;;;;;;;;;;10413363;28;952;-71
2023/03/17 19:12:39;;;;;;;;;;;;;;;;;;10413465;28;1953;-70
2023/03/17 19:17:35;;;;;;;;;;;;;;;;;;10413231;28;884;-71
2023/03/17 19:22:31;;;;;;;;;;;;;;;;;;10413055;28;873;-71
2023/03/17 19:27:27;;;;;;;;;;;;;;;;;;10412384;28;780;-71
2023/03/17 19:32:23;;;;;;;;;;;;;;;;;;10412503;28;1889;-70
2023/03/17 19:37:19;;;;;;;;;;;;;;;;;;10411903;28;918;-71
2023/03/17 19:42:16;;;;;;;;;;;;;;;;;;10411710;28;1373;-71
2023/03/17 19:47:12;;;;;;;;;;;;;;;;;;10412208;28;920;-71
2023/03/17 19:52:08;;;;;;;;;;;;;;;;;;10411382;28;1953;-71
2023/03/17 19:57:04;;;;;;;;;;;;;;;;;;10412449;28;809;-71
2023/03/17 20:02:00;;;;;;;;;;;;;;;;;;10411008;28;865;-71
2023/03/17 20:06:57;;;;;;;;;;;;;;;;;;10411325;28;850;-71
2023/03/17 20:11:53;;;;;;;;;;;;;;;;;;10410501;28;1898;-71
2023/03/17 20:16:49;;;;;;;;;;;;;;;;;;10410527;28;783;-71
2023/03/17 20:21:45;;;;;;;;;;;;;;;;;;10410237;28;810;-68
2023/03/17 20:26:42;;;;;;;;;;;;;;;;;;10410352;28;794;-71
2023/03/17 20:31:38;;;;;;;;;;;;;;;;;;10409787;28;1877;-71
2023/03/17 20:36:35;;;;;;;;;;;;;;;;;;10410211;28;1082;-71
2023/03/17 20:41:31;;;;;;;;;;;;;;;;;;10408749;28;1085;-71
2023/03/17 20:46:27;;;;;;;;;;;;;;;;;;10409728;28;1052;-71
2023/03/17 20:51:24;;;;;;;;;;;;;;;;;;10409013;28;1914;-71
2023/03/17 20:56:21;;;;;;;;;;;;;;;;;;10409517;28;917;-71
2023/03/17 21:01:17;;;;;;;;;;;;;;;;;;10408660;28;878;-71
2023/03/17 21:06:13;;;;;;;;;;;;;;;;;;10409281;28;861;-71
2023/03/17 21:11:09;;;;;;;;;;;;;;;;;;10408364;28;920;-71
2023/03/17 21:16:06;;;;;;;;;;;;;;;;;;10408844;28;1866;-71
2023/03/17 21:21:02;;;;;;;;;;;;;;;;;;10408842;28;879;-71
2023/03/17 21:25:57;;;;;;;;;;;;;;;;;;10408613;28;803;-71
2023/03/17 21:30:53;;;;;;;;;;;;;;;;;;10407952;28;777;-71
2023/03/17 21:35:49;;;;;;;;;;;;;;;;;;10407679;28;1933;-71
2023/03/17 21:40:46;;;;;;;;;;;;;;;;;;10407379;28;1436;-72
2023/03/17 21:45:43;;;;;;;;;;;;;;;;;;10407541;28;901;-71
2023/03/17 21:50:38;;;;;;;;;;;;;;;;;;10407428;28;901;-71
2023/03/17 21:55:35;;;;;;;;;;;;;;;;;;10415179;28;1983;-71
2023/03/17 22:00:30;;;;;;;;;;;;;;;;;;10416392;28;943;-71
2023/03/17 22:05:27;;;;;;;;;;;;;;;;;;10415875;28;899;-71
2023/03/17 22:10:23;;;;;;;;;;;;;;;;;;10415414;28;874;-71
2023/03/17 22:15:20;;;;;;;;;;;;;;;;;;10415551;28;1894;-71
2023/03/17 22:20:16;;;;;;;;;;;;;;;;;;10386397;28;1128;-71
2023/03/17 22:25:11;;;;;;;;;;;;;;;;;;10372887;28;823;-71
2023/03/17 22:30:07;;;;;;;;;;;;;;;;;;10372133;28;846;-71
2023/03/17 22:35:03;;;;;;;;;;;;;;;;;;10372866;28;1870;-71
2023/03/17 22:40:01;;;;;;;;;;;;;;;;;;10372159;28;1195;-71
2023/03/17 22:44:57;;;;;;;;;;;;;;;;;;10372509;28;985;-74
2023/03/17 22:49:53;;;;;;;;;;;;;;;;;;10372447;28;815;-73
2023/03/17 22:54:49;;;;;;;;;;;;;;;;;;10371942;28;1975;-74
2023/03/17 22:59:45;;;;;;;;;;;;;;;;;;10371585;28;862;-75
2023/03/17 23:04:41;;;;;;;;;;;;;;;;;;10371456;28;854;-74
2023/03/17 23:09:39;;;;;;;;;;;;;;;;;;10371553;28;870;-73
2023/03/17 23:14:36;;;;;;;;;;;;;;;;;;10371378;28;1922;-75
2023/03/17 23:19:31;;;;;;;;;;;;;;;;;;10371248;28;1000;-72
2023/03/17 23:24:27;;;;;;;;;;;;;;;;;;10371448;28;806;-72
2023/03/17 23:29:23;;;;;;;;;;;;;;;;;;10370145;28;898;-72
2023/03/17 23:34:19;;;;;;;;;;;;;;;;;;10370617;28;1941;-72
2023/03/17 23:39:15;;;;;;;;;;;;;;;;;;10369815;28;1328;-72
2023/03/17 23:44:11;;;;;;;;;;;;;;;;;;10370880;28;898;-72
2023/03/17 23:49:07;;;;;;;;;;;;;;;;;;10370681;28;863;-72
2023/03/17 23:54:04;;;;;;;;;;;;;;;;;;10369902;28;1921;-72
2023/03/17 23:59:00;;;;;;;;;;;;;;;;;;10369576;28;833;-72
